Time,TemperatureF,DewpointF,PressureIn,WindDirection,WindDirectionDegrees,WindSpeedMPH,WindSpeedGustMPH,Humidity,HourlyPrecipIn,Conditions,Clouds,dailyrainin,SoftwareType,DateUTC
2013-01-11 00:01:00,34.2,31.5,29.01,SSE,158,2.5,3.8,90,0.00,,,0.00,WUHU216HW,2013-01-11 06:01:00,
2013-01-11 00:02:00,34.2,31.5,29.01,South,180,2.7,2.7,90,0.00,,,0.00,WUHU216HW,2013-01-11 06:02:00,
2013-01-11 00:06:00,34.2,31.5,29.01,South,180,2.7,3.6,90,0.00,,,0.00,WUHU216HW,2013-01-11 06:06:00,
2013-01-11 00:11:00,34.2,31.5,29.01,South,180,2.7,2.7,90,0.00,,,0.00,WUHU216HW,2013-01-11 06:11:00,
2013-01-11 00:32:00,34.2,31.5,29.00,SSE,158,2.9,2.9,90,0.00,,,0.00,WUHU216HW,2013-01-11 06:32:00,
2013-01-11 00:37:00,34.4,31.7,29.00,SSE,158,3.6,3.6,90,0.00,,,0.00,WUHU216HW,2013-01-11 06:37:00,
2013-01-11 00:42:00,34.4,31.7,28.99,SSE,158,4.5,4.9,90,0.00,,,0.00,WUHU216HW,2013-01-11 06:42:00,
2013-01-11 00:47:00,34.4,31.7,28.99,SSE,158,0.7,4.9,90,0.00,,,0.00,WUHU216HW,2013-01-11 06:47:00,
2013-01-11 00:52:00,34.4,31.7,28.99,SSE,158,3.1,3.4,90,0.00,,,0.00,WUHU216HW,2013-01-11 06:52:00,
2013-01-11 00:57:00,34.4,31.7,28.98,SSE,158,2.2,4.0,90,0.00,,,0.00,WUHU216HW,2013-01-11 06:57:00,
2013-01-11 01:02:00,34.4,31.7,28.98,ESE,113,0.2,4.0,90,0.00,,,0.00,WUHU216HW,2013-01-11 07:02:00,
2013-01-11 01:07:00,34.6,31.9,28.98,SSE,158,1.6,4.3,90,0.00,,,0.00,WUHU216HW,2013-01-11 07:07:00,
2013-01-11 01:12:00,34.6,31.6,28.98,SE,135,1.1,4.3,89,0.00,,,0.00,WUHU216HW,2013-01-11 07:12:00,
2013-01-11 01:17:00,34.6,31.9,28.98,SSE,158,1.8,4.0,90,0.00,,,0.00,WUHU216HW,2013-01-11 07:17:00,
2013-01-11 01:22:00,34.6,31.9,28.97,SE,135,2.5,4.0,90,0.00,,,0.00,WUHU216HW,2013-01-11 07:22:00,
2013-01-11 01:27:00,34.6,31.9,28.97,SSE,158,3.4,3.4,90,0.00,,,0.00,WUHU216HW,2013-01-11 07:27:00,
2013-01-11 01:32:00,34.6,31.9,28.97,North,0,0.4,3.4,90,0.00,,,0.00,WUHU216HW,2013-01-11 07:32:00,
2013-01-11 01:37:00,34.6,31.9,28.97,SSE,158,3.1,3.6,90,0.00,,,0.00,WUHU216HW,2013-01-11 07:37:00,
2013-01-11 01:42:00,34.6,31.9,28.96,SSE,158,0.9,4.3,90,0.00,,,0.00,WUHU216HW,2013-01-11 07:42:00,
2013-01-11 01:47:00,34.7,32.0,28.96,SE,135,4.3,4.3,90,0.00,,,0.00,WUHU216HW,2013-01-11 07:47:00,
2013-01-11 01:52:00,34.7,32.0,28.96,ESE,113,3.8,4.3,90,0.00,,,0.00,WUHU216HW,2013-01-11 07:52:00,
2013-01-11 01:57:00,34.7,32.0,28.96,ESE,113,2.5,3.8,90,0.00,,,0.00,WUHU216HW,2013-01-11 07:57:00,
2013-01-11 02:02:00,34.7,32.0,28.96,SE,135,1.8,4.0,90,0.00,,,0.00,WUHU216HW,2013-01-11 08:02:00,
2013-01-11 02:07:00,34.9,32.2,28.95,SE,135,2.2,4.0,90,0.00,,,0.00,WUHU216HW,2013-01-11 08:07:00,
2013-01-11 02:12:00,34.9,32.2,28.96,South,180,0.2,3.4,90,0.00,,,0.00,WUHU216HW,2013-01-11 08:12:00,
2013-01-11 02:17:00,34.9,32.2,28.96,South,180,0.9,3.4,90,0.00,,,0.00,WUHU216HW,2013-01-11 08:17:00,
2013-01-11 02:22:00,34.9,32.0,28.96,SE,135,1.8,3.4,89,0.00,,,0.00,WUHU216HW,2013-01-11 08:22:00,
2013-01-11 02:27:00,34.9,32.0,28.96,South,180,1.6,2.9,89,0.00,,,0.00,WUHU216HW,2013-01-11 08:27:00,
2013-01-11 02:32:00,34.9,32.0,28.95,SE,135,0.9,2.9,89,0.00,,,0.00,WUHU216HW,2013-01-11 08:32:00,
2013-01-11 02:37:00,34.9,32.0,28.95,SSE,158,2.7,2.7,89,0.00,,,0.00,WUHU216HW,2013-01-11 08:37:00,
2013-01-11 02:42:00,34.9,32.0,28.94,SSE,158,1.6,2.7,89,0.00,,,0.00,WUHU216HW,2013-01-11 08:42:00,
2013-01-11 02:47:00,34.9,32.0,28.94,SE,135,1.8,2.5,89,0.00,,,0.00,WUHU216HW,2013-01-11 08:47:00,
2013-01-11 02:52:00,34.9,32.0,28.94,SSE,158,2.7,2.7,89,0.00,,,0.00,WUHU216HW,2013-01-11 08:52:00,
2013-01-11 02:57:00,34.9,32.0,28.94,SSE,158,0.4,3.8,89,0.00,,,0.00,WUHU216HW,2013-01-11 08:57:00,
2013-01-11 03:02:00,35.1,32.1,28.94,SE,135,4.3,5.4,89,0.00,,,0.00,WUHU216HW,2013-01-11 09:02:00,
2013-01-11 03:07:00,35.1,32.1,28.93,SSE,158,2.2,5.4,89,0.00,,,0.00,WUHU216HW,2013-01-11 09:07:00,
2013-01-11 03:12:00,35.1,32.1,28.93,SE,135,2.0,3.4,89,0.00,,,0.00,WUHU216HW,2013-01-11 09:12:00,
2013-01-11 03:17:00,34.9,32.2,28.93,SE,135,2.0,4.7,90,0.00,,,0.00,WUHU216HW,2013-01-11 09:17:00,
2013-01-11 03:22:00,34.9,32.2,28.93,East,90,0.7,4.7,90,0.00,,,0.00,WUHU216HW,2013-01-11 09:22:00,
2013-01-11 03:27:00,34.9,32.2,28.92,SE,135,2.9,3.6,90,0.00,,,0.00,WUHU216HW,2013-01-11 09:27:00,
2013-01-11 03:32:00,34.9,32.2,28.92,SE,135,2.5,4.7,90,0.00,,,0.00,WUHU216HW,2013-01-11 09:32:00,
2013-01-11 03:37:00,34.9,32.2,28.92,SSE,158,5.4,5.4,90,0.00,,,0.00,WUHU216HW,2013-01-11 09:37:00,
2013-01-11 03:42:00,34.9,32.2,28.92,SSE,158,1.1,5.4,90,0.00,,,0.00,WUHU216HW,2013-01-11 09:42:00,
2013-01-11 03:47:00,34.9,32.2,28.92,South,180,2.5,5.4,90,0.00,,,0.00,WUHU216HW,2013-01-11 09:47:00,
2013-01-11 03:52:00,34.9,32.2,28.92,SE,135,4.3,4.3,90,0.00,,,0.00,WUHU216HW,2013-01-11 09:52:00,
2013-01-11 03:57:00,34.9,32.2,28.91,East,90,2.5,4.3,90,0.00,,,0.00,WUHU216HW,2013-01-11 09:57:00,
2013-01-11 04:02:00,34.9,32.2,28.92,South,180,2.5,2.5,90,0.00,,,0.00,WUHU216HW,2013-01-11 10:02:00,
2013-01-11 04:07:00,34.9,32.2,28.91,South,180,2.9,3.8,90,0.00,,,0.00,WUHU216HW,2013-01-11 10:07:00,
2013-01-11 04:12:00,35.1,32.4,28.91,South,180,2.0,3.8,90,0.00,,,0.00,WUHU216HW,2013-01-11 10:12:00,
2013-01-11 04:17:00,34.9,32.2,28.91,SSE,158,1.1,3.4,90,0.00,,,0.00,WUHU216HW,2013-01-11 10:17:00,
2013-01-11 04:22:00,34.9,32.2,28.91,SSE,158,1.1,2.2,90,0.00,,,0.00,WUHU216HW,2013-01-11 10:22:00,
2013-01-11 04:27:00,35.1,32.4,28.91,SSE,158,0.7,2.2,90,0.00,,,0.00,WUHU216HW,2013-01-11 10:27:00,
2013-01-11 04:32:00,35.1,32.4,28.90,SSE,158,1.1,2.7,90,0.00,,,0.00,WUHU216HW,2013-01-11 10:32:00,
2013-01-11 04:37:00,35.1,32.4,28.90,SSE,158,1.8,3.1,90,0.00,,,0.00,WUHU216HW,2013-01-11 10:37:00,
2013-01-11 04:42:00,35.1,32.4,28.90,ESE,113,2.0,3.1,90,0.00,,,0.00,WUHU216HW,2013-01-11 10:42:00,
2013-01-11 04:47:00,35.1,32.4,28.90,SSE,158,1.3,2.9,90,0.00,,,0.00,WUHU216HW,2013-01-11 10:47:00,
2013-01-11 04:52:00,35.1,32.4,28.90,South,180,1.1,1.8,90,0.00,,,0.00,WUHU216HW,2013-01-11 10:52:00,
2013-01-11 04:57:00,35.1,32.4,28.89,SSE,158,0.4,1.8,90,0.00,,,0.00,WUHU216HW,2013-01-11 10:57:00,
2013-01-11 05:02:00,35.1,32.4,28.89,ESE,113,0.7,2.2,90,0.00,,,0.00,WUHU216HW,2013-01-11 11:02:00,
2013-01-11 05:07:00,35.1,32.4,28.89,SSE,158,0.9,2.2,90,0.00,,,0.00,WUHU216HW,2013-01-11 11:07:00,
2013-01-11 05:12:00,35.1,32.4,28.89,ESE,113,0.9,2.2,90,0.00,,,0.00,WUHU216HW,2013-01-11 11:12:00,
2013-01-11 05:17:00,35.3,32.6,28.89,SE,135,2.0,2.9,90,0.00,,,0.00,WUHU216HW,2013-01-11 11:17:00,
2013-01-11 05:22:00,35.1,32.4,28.88,SE,135,1.3,2.9,90,0.00,,,0.00,WUHU216HW,2013-01-11 11:22:00,
2013-01-11 05:27:00,35.1,32.4,28.88,SE,135,1.1,2.0,90,0.00,,,0.00,WUHU216HW,2013-01-11 11:27:00,
2013-01-11 05:32:00,35.3,32.6,28.88,SSE,158,1.8,2.0,90,0.00,,,0.00,WUHU216HW,2013-01-11 11:32:00,
2013-01-11 05:37:00,35.1,32.4,28.87,SSE,158,1.1,2.5,90,0.00,,,0.00,WUHU216HW,2013-01-11 11:37:00,
2013-01-11 05:42:00,35.3,32.6,28.87,South,180,1.6,2.5,90,0.00,,,0.00,WUHU216HW,2013-01-11 11:42:00,
2013-01-11 05:47:00,35.3,32.6,28.87,SE,135,1.1,2.9,90,0.00,,,0.00,WUHU216HW,2013-01-11 11:47:00,
2013-01-11 05:52:00,35.3,32.6,28.87,SSE,158,0.4,2.9,90,0.00,,,0.00,WUHU216HW,2013-01-11 11:52:00,
2013-01-11 05:57:00,35.3,32.6,28.87,SE,135,0.9,1.6,90,0.00,,,0.00,WUHU216HW,2013-01-11 11:57:00,
2013-01-11 06:02:00,35.3,32.6,28.87,SSE,158,0.7,2.0,90,0.00,,,0.00,WUHU216HW,2013-01-11 12:02:00,
2013-01-11 06:07:00,35.3,32.6,28.87,SE,135,1.1,2.0,90,0.00,,,0.00,WUHU216HW,2013-01-11 12:07:00,
2013-01-11 06:12:00,35.3,32.6,28.87,SSE,158,1.6,1.8,90,0.00,,,0.00,WUHU216HW,2013-01-11 12:12:00,
2013-01-11 06:17:00,35.3,32.6,28.87,SSE,158,1.1,1.8,90,0.00,,,0.00,WUHU216HW,2013-01-11 12:17:00,
2013-01-11 06:22:00,35.3,32.6,28.87,SE,135,1.1,1.8,90,0.00,,,0.00,WUHU216HW,2013-01-11 12:22:00,
2013-01-11 06:27:00,35.3,32.6,28.87,South,180,2.5,2.5,90,0.00,,,0.00,WUHU216HW,2013-01-11 12:27:00,
2013-01-11 06:32:00,35.3,32.6,28.87,SE,135,2.5,2.5,90,0.00,,,0.00,WUHU216HW,2013-01-11 12:32:00,
2013-01-11 06:37:00,35.3,32.6,28.87,SSE,158,1.3,2.5,90,0.00,,,0.00,WUHU216HW,2013-01-11 12:37:00,
2013-01-11 06:42:00,35.3,32.6,28.87,ESE,113,1.6,3.1,90,0.00,,,0.00,WUHU216HW,2013-01-11 12:42:00,
2013-01-11 06:47:00,35.3,32.6,28.87,SSE,158,1.3,3.1,90,0.00,,,0.00,WUHU216HW,2013-01-11 12:47:00,
2013-01-11 06:52:00,35.3,32.6,28.86,SE,135,2.5,4.0,90,0.00,,,0.00,WUHU216HW,2013-01-11 12:52:00,
2013-01-11 06:57:00,35.3,32.6,28.85,SSE,158,1.3,4.0,90,0.00,,,0.00,WUHU216HW,2013-01-11 12:57:00,
2013-01-11 07:02:00,35.3,32.6,28.85,SE,135,4.0,4.0,90,0.00,,,0.00,WUHU216HW,2013-01-11 13:02:00,
2013-01-11 07:07:00,35.3,32.6,28.85,ESE,113,2.2,4.0,90,0.00,,,0.00,WUHU216HW,2013-01-11 13:07:00,
2013-01-11 07:12:00,35.3,32.6,28.85,SSE,158,2.0,4.3,90,0.00,,,0.00,WUHU216HW,2013-01-11 13:12:00,
2013-01-11 07:17:00,35.3,32.6,28.85,SE,135,1.8,4.3,90,0.00,,,0.00,WUHU216HW,2013-01-11 13:17:00,
2013-01-11 07:22:00,35.5,32.8,28.85,South,180,2.2,2.2,90,0.00,,,0.00,WUHU216HW,2013-01-11 13:22:00,
2013-01-11 07:27:00,35.3,32.6,28.84,SE,135,1.6,2.9,90,0.00,,,0.00,WUHU216HW,2013-01-11 13:27:00,
2013-01-11 07:32:00,35.3,32.6,28.85,SSE,158,1.1,2.9,90,0.00,,,0.00,WUHU216HW,2013-01-11 13:32:00,
2013-01-11 07:37:00,35.5,32.8,28.85,East,90,0.4,2.2,90,0.00,,,0.00,WUHU216HW,2013-01-11 13:37:00,
2013-01-11 07:42:00,35.5,32.8,28.85,South,180,1.3,4.3,90,0.00,,,0.00,WUHU216HW,2013-01-11 13:42:00,
2013-01-11 07:47:00,35.5,32.8,28.85,SSE,158,1.8,4.3,90,0.00,,,0.00,WUHU216HW,2013-01-11 13:47:00,
2013-01-11 07:52:00,35.5,32.8,28.84,SSE,158,0.9,3.1,90,0.00,,,0.00,WUHU216HW,2013-01-11 13:52:00,
2013-01-11 07:57:00,35.5,32.8,28.84,SSE,158,2.7,4.7,90,0.00,,,0.00,WUHU216HW,2013-01-11 13:57:00,
2013-01-11 08:02:00,35.5,33.0,28.85,ESE,113,1.1,4.7,91,0.00,,,0.00,WUHU216HW,2013-01-11 14:02:00,
2013-01-11 08:07:00,35.5,33.0,28.85,SSE,158,2.0,5.1,91,0.00,,,0.00,WUHU216HW,2013-01-11 14:07:00,
2013-01-11 08:12:00,35.5,33.0,28.84,SSE,158,1.1,5.4,91,0.00,,,0.00,WUHU216HW,2013-01-11 14:12:00,
2013-01-11 08:17:00,35.6,33.2,28.85,SE,135,1.6,5.4,91,0.00,,,0.00,WUHU216HW,2013-01-11 14:17:00,
2013-01-11 08:22:00,35.6,33.2,28.85,South,180,1.1,1.8,91,0.00,,,0.00,WUHU216HW,2013-01-11 14:22:00,
2013-01-11 08:27:00,35.6,33.2,28.85,SE,135,0.4,1.8,91,0.00,,,0.00,WUHU216HW,2013-01-11 14:27:00,
2013-01-11 08:32:00,35.8,33.4,28.85,ESE,113,0.9,4.7,91,0.00,,,0.00,WUHU216HW,2013-01-11 14:32:00,
2013-01-11 08:37:00,35.8,33.1,28.84,SSE,158,2.7,4.7,90,0.00,,,0.00,WUHU216HW,2013-01-11 14:37:00,
2013-01-11 08:42:00,36.0,33.3,28.84,SE,135,1.1,2.7,90,0.00,,,0.00,WUHU216HW,2013-01-11 14:42:00,
2013-01-11 08:47:00,36.0,33.3,28.84,SSE,158,2.5,2.5,90,0.00,,,0.00,WUHU216HW,2013-01-11 14:47:00,
2013-01-11 08:52:00,36.2,33.5,28.84,SE,135,0.4,3.1,90,0.00,,,0.00,WUHU216HW,2013-01-11 14:52:00,
2013-01-11 08:57:00,36.2,33.5,28.84,SSE,158,0.7,3.1,90,0.00,,,0.00,WUHU216HW,2013-01-11 14:57:00,
2013-01-11 09:02:00,36.4,33.7,28.84,SE,135,2.9,3.1,90,0.00,,,0.00,WUHU216HW,2013-01-11 15:02:00,
2013-01-11 09:07:00,36.4,33.7,28.84,SSE,158,2.0,3.1,90,0.00,,,0.00,WUHU216HW,2013-01-11 15:07:00,
2013-01-11 09:12:00,36.4,33.7,28.84,SE,135,1.6,2.5,90,0.00,,,0.00,WUHU216HW,2013-01-11 15:12:00,
2013-01-11 09:17:00,36.4,33.7,28.84,East,90,1.1,2.9,90,0.00,,,0.00,WUHU216HW,2013-01-11 15:17:00,
2013-01-11 09:22:00,36.4,33.7,28.83,SE,135,2.2,3.6,90,0.00,,,0.00,WUHU216HW,2013-01-11 15:22:00,
2013-01-11 09:27:00,36.4,33.7,28.83,SE,135,1.1,3.6,90,0.00,,,0.00,WUHU216HW,2013-01-11 15:27:00,
2013-01-11 09:32:00,36.4,33.7,28.83,ESE,113,0.7,3.1,90,0.00,,,0.00,WUHU216HW,2013-01-11 15:32:00,
2013-01-11 09:37:00,36.4,33.7,28.84,SSE,158,1.3,3.1,90,0.00,,,0.00,WUHU216HW,2013-01-11 15:37:00,
2013-01-11 09:42:00,36.7,34.0,28.84,SSE,158,1.1,2.5,90,0.00,,,0.00,WUHU216HW,2013-01-11 15:42:00,
2013-01-11 09:47:00,36.7,34.0,28.85,North,0,0.4,3.1,90,0.00,,,0.00,WUHU216HW,2013-01-11 15:47:00,
2013-01-11 09:52:00,36.9,34.2,28.85,SSE,158,0.7,3.1,90,0.00,,,0.00,WUHU216HW,2013-01-11 15:52:00,
2013-01-11 09:57:00,37.1,34.4,28.85,SE,135,0.0,1.1,90,0.00,,,0.00,WUHU216HW,2013-01-11 15:57:00,
2013-01-11 10:02:00,37.1,34.4,28.85,ESE,113,0.4,1.3,90,0.00,,,0.00,WUHU216HW,2013-01-11 16:02:00,
2013-01-11 10:07:00,37.1,34.1,28.85,SSE,158,0.2,1.3,89,0.00,,,0.00,WUHU216HW,2013-01-11 16:07:00,
2013-01-11 10:12:00,37.1,34.1,28.85,NNE,23,1.1,1.6,89,0.00,,,0.00,WUHU216HW,2013-01-11 16:12:00,
2013-01-11 10:17:00,37.3,34.3,28.85,SSE,158,0.4,1.6,89,0.00,,,0.00,WUHU216HW,2013-01-11 16:17:00,
2013-01-11 10:22:00,37.4,34.5,28.85,South,180,0.9,1.1,89,0.00,,,0.00,WUHU216HW,2013-01-11 16:22:00,
2013-01-11 10:27:00,37.4,34.7,28.85,North,0,0.4,1.1,90,0.00,,,0.00,WUHU216HW,2013-01-11 16:27:00,
2013-01-11 10:32:00,37.4,34.7,28.85,SE,135,0.7,0.9,90,0.00,,,0.00,WUHU216HW,2013-01-11 16:32:00,
2013-01-11 10:37:00,37.6,34.9,28.84,SSE,158,0.4,0.7,90,0.00,,,0.00,WUHU216HW,2013-01-11 16:37:00,
2013-01-11 10:42:00,37.8,35.1,28.84,SSE,158,0.7,2.7,90,0.00,,,0.00,WUHU216HW,2013-01-11 16:42:00,
2013-01-11 10:47:00,37.8,35.1,28.84,SSE,158,1.8,2.7,90,0.00,,,0.00,WUHU216HW,2013-01-11 16:47:00,
2013-01-11 10:52:00,38.2,35.5,28.84,SSE,158,1.1,2.5,90,0.00,,,0.00,WUHU216HW,2013-01-11 16:52:00,
2013-01-11 10:57:00,38.5,35.8,28.84,ESE,113,0.9,2.5,90,0.00,,,0.00,WUHU216HW,2013-01-11 16:57:00,
2013-01-11 11:02:00,38.7,36.0,28.83,South,180,1.1,2.2,90,0.00,,,0.00,WUHU216HW,2013-01-11 17:02:00,
2013-01-11 11:07:00,38.5,35.8,28.83,SSE,158,2.2,2.2,90,0.00,,,0.00,WUHU216HW,2013-01-11 17:07:00,
2013-01-11 11:12:00,38.9,36.2,28.83,SE,135,0.7,2.2,90,0.00,,,0.00,WUHU216HW,2013-01-11 17:12:00,
2013-01-11 11:17:00,38.9,36.2,28.83,SSE,158,0.4,2.2,90,0.00,,,0.00,WUHU216HW,2013-01-11 17:17:00,
2013-01-11 11:22:00,38.9,35.9,28.83,SSE,158,3.8,3.8,89,0.00,,,0.00,WUHU216HW,2013-01-11 17:22:00,
2013-01-11 11:27:00,38.7,35.7,28.82,SSE,158,1.6,3.8,89,0.00,,,0.00,WUHU216HW,2013-01-11 17:27:00,
2013-01-11 11:32:00,38.7,35.7,28.82,South,180,2.2,3.4,89,0.00,,,0.00,WUHU216HW,2013-01-11 17:32:00,
2013-01-11 11:37:00,38.7,35.7,28.82,SE,135,2.5,3.6,89,0.00,,,0.00,WUHU216HW,2013-01-11 17:37:00,
2013-01-11 11:42:00,38.7,35.7,28.81,SE,135,3.8,3.8,89,0.00,,,0.00,WUHU216HW,2013-01-11 17:42:00,
2013-01-11 11:47:00,38.9,35.9,28.81,SE,135,0.2,3.8,89,0.00,,,0.00,WUHU216HW,2013-01-11 17:47:00,
2013-01-11 11:52:00,38.9,35.9,28.81,SSE,158,2.5,2.5,89,0.00,,,0.00,WUHU216HW,2013-01-11 17:52:00,
2013-01-11 11:57:00,39.1,36.1,28.80,SSE,158,2.2,2.9,89,0.00,,,0.00,WUHU216HW,2013-01-11 17:57:00,
2013-01-11 12:02:00,39.2,36.3,28.80,ESE,113,1.8,3.8,89,0.00,,,0.00,WUHU216HW,2013-01-11 18:02:00,
2013-01-11 12:07:00,39.1,36.1,28.79,SE,135,2.9,3.8,89,0.00,,,0.00,WUHU216HW,2013-01-11 18:07:00,
2013-01-11 12:12:00,39.1,36.1,28.79,SSE,158,2.7,3.4,89,0.00,,,0.00,WUHU216HW,2013-01-11 18:12:00,
2013-01-11 12:17:00,39.1,36.1,28.79,SE,135,5.4,5.4,89,0.00,,,0.00,WUHU216HW,2013-01-11 18:17:00,
2013-01-11 12:22:00,39.2,36.3,28.79,SSE,158,1.8,5.4,89,0.00,,,0.00,WUHU216HW,2013-01-11 18:22:00,
2013-01-11 12:27:00,39.4,36.5,28.79,SE,135,4.0,4.0,89,0.00,,,0.00,WUHU216HW,2013-01-11 18:27:00,
2013-01-11 12:32:00,39.2,36.3,28.79,SE,135,4.0,4.0,89,0.00,,,0.00,WUHU216HW,2013-01-11 18:32:00,
2013-01-11 12:37:00,39.1,36.1,28.79,SE,135,2.9,4.0,89,0.00,,,0.00,WUHU216HW,2013-01-11 18:37:00,
2013-01-11 12:42:00,38.9,35.9,28.78,SE,135,1.1,4.0,89,0.00,,,0.00,WUHU216HW,2013-01-11 18:42:00,
2013-01-11 12:47:00,38.9,35.9,28.78,SSE,158,1.1,3.8,89,0.00,,,0.00,WUHU216HW,2013-01-11 18:47:00,
2013-01-11 12:52:00,39.1,36.1,28.78,SE,135,3.4,3.4,89,0.00,,,0.00,WUHU216HW,2013-01-11 18:52:00,
2013-01-11 12:57:00,39.1,36.1,28.78,SE,135,1.8,3.4,89,0.00,,,0.00,WUHU216HW,2013-01-11 18:57:00,
2013-01-11 13:02:00,38.9,35.9,28.77,ESE,113,3.4,3.4,89,0.00,,,0.00,WUHU216HW,2013-01-11 19:02:00,
2013-01-11 13:07:00,38.7,35.7,28.77,SE,135,2.5,3.4,89,0.00,,,0.00,WUHU216HW,2013-01-11 19:07:00,
2013-01-11 13:12:00,38.7,35.7,28.77,South,180,1.8,2.7,89,0.00,,,0.00,WUHU216HW,2013-01-11 19:12:00,
2013-01-11 13:17:00,38.9,35.9,28.77,South,180,0.0,2.9,89,0.00,,,0.00,WUHU216HW,2013-01-11 19:17:00,
2013-01-11 13:22:00,38.9,35.9,28.77,South,180,1.6,2.9,89,0.00,,,0.00,WUHU216HW,2013-01-11 19:22:00,
2013-01-11 13:27:00,39.2,36.3,28.77,SSE,158,3.8,3.8,89,0.00,,,0.00,WUHU216HW,2013-01-11 19:27:00,
2013-01-11 13:32:00,39.2,36.3,28.77,South,180,3.4,3.8,89,0.00,,,0.00,WUHU216HW,2013-01-11 19:32:00,
2013-01-11 13:37:00,39.2,36.3,28.77,SSE,158,1.1,3.4,89,0.00,,,0.00,WUHU216HW,2013-01-11 19:37:00,
2013-01-11 13:42:00,39.4,36.5,28.77,SSE,158,0.4,1.8,89,0.00,,,0.00,WUHU216HW,2013-01-11 19:42:00,
2013-01-11 13:47:00,39.4,36.5,28.77,SE,135,1.6,1.8,89,0.00,,,0.00,WUHU216HW,2013-01-11 19:47:00,
2013-01-11 13:52:00,39.4,36.5,28.77,SE,135,1.1,1.8,89,0.00,,,0.00,WUHU216HW,2013-01-11 19:52:00,
2013-01-11 13:57:00,39.6,36.6,28.77,SSE,158,2.0,2.0,89,0.00,,,0.00,WUHU216HW,2013-01-11 19:57:00,
2013-01-11 14:02:00,39.8,36.8,28.77,SSE,158,2.0,2.9,89,0.00,,,0.00,WUHU216HW,2013-01-11 20:02:00,
2013-01-11 14:07:00,39.8,36.8,28.76,SSE,158,2.9,3.8,89,0.00,,,0.00,WUHU216HW,2013-01-11 20:07:00,
2013-01-11 14:12:00,40.0,37.0,28.77,SSE,158,1.6,3.8,89,0.00,,,0.00,WUHU216HW,2013-01-11 20:12:00,
2013-01-11 14:17:00,39.8,36.5,28.77,SE,135,2.5,3.6,88,0.00,,,0.00,WUHU216HW,2013-01-11 20:17:00,
2013-01-11 14:22:00,40.0,36.6,28.77,South,180,1.6,3.4,88,0.00,,,0.00,WUHU216HW,2013-01-11 20:22:00,
2013-01-11 14:27:00,39.8,36.5,28.77,South,180,1.3,3.4,88,0.00,,,0.00,WUHU216HW,2013-01-11 20:27:00,
2013-01-11 14:32:00,39.6,36.4,28.77,SSE,158,1.1,3.4,88,0.00,,,0.00,WUHU216HW,2013-01-11 20:32:00,
2013-01-11 14:37:00,39.2,36.0,28.77,SSE,158,0.9,1.8,88,0.00,,,0.00,WUHU216HW,2013-01-11 20:37:00,
2013-01-11 14:42:00,39.2,36.0,28.76,SSW,203,2.5,3.1,88,0.00,,,0.00,WUHU216HW,2013-01-11 20:42:00,
2013-01-11 14:47:00,39.2,36.0,28.76,SSE,158,1.8,3.1,88,0.00,,,0.00,WUHU216HW,2013-01-11 20:47:00,
2013-01-11 14:52:00,39.2,36.0,28.76,SSE,158,1.8,3.4,88,0.00,,,0.00,WUHU216HW,2013-01-11 20:52:00,
2013-01-11 14:57:00,39.1,35.8,28.76,ESE,113,1.6,3.4,88,0.00,,,0.00,WUHU216HW,2013-01-11 20:57:00,
2013-01-11 15:02:00,38.9,35.9,28.76,ESE,113,2.2,4.3,89,0.00,,,0.00,WUHU216HW,2013-01-11 21:02:00,
2013-01-11 15:07:00,38.9,35.9,28.75,SSE,158,3.1,4.3,89,0.00,,,0.00,WUHU216HW,2013-01-11 21:07:00,
2013-01-11 15:12:00,38.7,35.7,28.75,ESE,113,2.0,4.0,89,0.00,,,0.00,WUHU216HW,2013-01-11 21:12:00,
2013-01-11 15:17:00,38.5,35.6,28.75,SSW,203,1.8,4.5,89,0.00,,,0.00,WUHU216HW,2013-01-11 21:17:00,
2013-01-11 15:21:00,38.5,35.8,28.75,SE,135,2.5,2.5,90,0.00,,,0.00,WUHU216HW,2013-01-11 21:21:00,
2013-01-11 15:22:00,38.5,35.8,28.75,SE,135,2.5,4.5,90,0.00,,,0.00,WUHU216HW,2013-01-11 21:22:00,
2013-01-11 15:27:00,38.5,35.8,28.75,SE,135,2.5,4.0,90,0.00,,,0.00,WUHU216HW,2013-01-11 21:27:00,
2013-01-11 15:51:00,38.3,35.6,28.75,SSE,158,3.8,3.8,90,0.00,,,0.00,WUHU216HW,2013-01-11 21:51:00,
2013-01-11 15:56:00,38.2,35.5,28.74,SE,135,2.5,4.0,90,0.00,,,0.00,WUHU216HW,2013-01-11 21:56:00,
2013-01-11 16:01:00,38.2,35.5,28.74,SSE,158,4.0,4.7,90,0.00,,,0.00,WUHU216HW,2013-01-11 22:01:00,
2013-01-11 16:06:00,37.8,35.4,28.74,South,180,5.4,5.8,91,0.00,,,0.00,WUHU216HW,2013-01-11 22:06:00,
2013-01-11 16:11:00,37.8,35.1,28.74,SE,135,2.9,5.8,90,0.00,,,0.00,WUHU216HW,2013-01-11 22:11:00,
2013-01-11 16:16:00,37.8,35.1,28.75,SSE,158,2.2,4.7,90,0.00,,,0.00,WUHU216HW,2013-01-11 22:16:00,
2013-01-11 16:21:00,37.8,35.1,28.74,SE,135,3.4,5.4,90,0.00,,,0.00,WUHU216HW,2013-01-11 22:21:00,
2013-01-11 16:26:00,37.6,35.2,28.74,SSE,158,5.4,5.4,91,0.00,,,0.00,WUHU216HW,2013-01-11 22:26:00,
2013-01-11 16:31:00,37.6,34.9,28.73,SE,135,4.7,5.8,90,0.00,,,0.00,WUHU216HW,2013-01-11 22:31:00,
2013-01-11 16:36:00,37.6,34.9,28.73,SSE,158,4.7,5.8,90,0.00,,,0.00,WUHU216HW,2013-01-11 22:36:00,
2013-01-11 16:41:00,37.4,34.7,28.72,ESE,113,4.0,6.0,90,0.00,,,0.00,WUHU216HW,2013-01-11 22:41:00,
2013-01-11 16:46:00,37.4,34.7,28.73,SSE,158,6.9,6.9,90,0.00,,,0.00,WUHU216HW,2013-01-11 22:46:00,
2013-01-11 16:51:00,37.4,34.7,28.72,ESE,113,1.6,6.9,90,0.00,,,0.00,WUHU216HW,2013-01-11 22:51:00,
2013-01-11 16:56:00,37.4,34.7,28.72,SE,135,3.4,6.7,90,0.00,,,0.00,WUHU216HW,2013-01-11 22:56:00,
2013-01-11 17:01:00,37.4,34.7,28.72,SSE,158,3.4,6.7,90,0.00,,,0.00,WUHU216HW,2013-01-11 23:01:00,
2013-01-11 17:06:00,37.3,34.8,28.73,SSE,158,1.8,3.6,91,0.00,,,0.00,WUHU216HW,2013-01-11 23:06:00,
2013-01-11 17:11:00,37.3,34.8,28.73,ESE,113,2.5,4.0,91,0.00,,,0.00,WUHU216HW,2013-01-11 23:11:00,
2013-01-11 17:16:00,37.3,34.8,28.72,ESE,113,3.4,4.9,91,0.00,,,0.00,WUHU216HW,2013-01-11 23:16:00,
2013-01-11 17:21:00,37.3,34.8,28.73,SSE,158,1.8,4.9,91,0.00,,,0.00,WUHU216HW,2013-01-11 23:21:00,
2013-01-11 17:26:00,37.3,34.8,28.73,SSE,158,1.3,4.7,91,0.00,,,0.00,WUHU216HW,2013-01-11 23:26:00,
2013-01-11 17:31:00,37.3,34.8,28.72,ESE,113,2.9,4.5,91,0.00,,,0.00,WUHU216HW,2013-01-11 23:31:00,
2013-01-11 17:36:00,37.1,34.7,28.71,ESE,113,2.0,4.5,91,0.00,,,0.00,WUHU216HW,2013-01-11 23:36:00,
2013-01-11 17:41:00,37.1,34.9,28.71,East,90,2.0,4.0,92,0.00,,,0.00,WUHU216HW,2013-01-11 23:41:00,
2013-01-11 17:46:00,37.1,34.7,28.71,SSE,158,2.7,4.9,91,0.00,,,0.00,WUHU216HW,2013-01-11 23:46:00,
2013-01-11 17:51:00,37.3,34.8,28.71,SE,135,2.5,4.9,91,0.00,,,0.00,WUHU216HW,2013-01-11 23:51:00,
2013-01-11 17:56:00,37.3,35.1,28.70,SSE,158,2.5,4.7,92,0.00,,,0.00,WUHU216HW,2013-01-11 23:56:00,
2013-01-11 18:01:00,37.3,35.1,28.69,SSE,158,4.0,5.1,92,0.00,,,0.00,WUHU216HW,2013-01-12 00:01:00,
2013-01-11 18:06:00,37.1,34.9,28.69,ESE,113,3.4,5.1,92,0.00,,,0.00,WUHU216HW,2013-01-12 00:06:00,
2013-01-11 18:11:00,37.1,34.9,28.70,SE,135,2.5,4.0,92,0.00,,,0.00,WUHU216HW,2013-01-12 00:11:00,
2013-01-11 18:16:00,37.1,34.9,28.70,ESE,113,4.9,4.9,92,0.00,,,0.00,WUHU216HW,2013-01-12 00:16:00,
2013-01-11 18:21:00,37.1,34.9,28.69,SSE,158,2.5,4.9,92,0.00,,,0.00,WUHU216HW,2013-01-12 00:21:00,
2013-01-11 18:26:00,37.1,34.9,28.69,SE,135,1.3,4.0,92,0.00,,,0.00,WUHU216HW,2013-01-12 00:26:00,
2013-01-11 18:31:00,37.1,34.9,28.69,ESE,113,2.2,4.5,92,0.00,,,0.00,WUHU216HW,2013-01-12 00:31:00,
2013-01-11 18:36:00,37.1,34.9,28.69,SE,135,2.5,4.5,92,0.00,,,0.00,WUHU216HW,2013-01-12 00:36:00,
2013-01-11 18:41:00,37.1,34.9,28.69,ESE,113,3.4,4.0,92,0.00,,,0.00,WUHU216HW,2013-01-12 00:41:00,
2013-01-11 18:46:00,37.3,35.1,28.69,South,180,2.0,4.0,92,0.00,,,0.00,WUHU216HW,2013-01-12 00:46:00,
2013-01-11 18:51:00,37.3,35.1,28.69,SE,135,1.8,4.7,92,0.00,,,0.00,WUHU216HW,2013-01-12 00:51:00,
2013-01-11 18:56:00,37.4,35.3,28.68,SE,135,4.7,6.3,92,0.00,,,0.00,WUHU216HW,2013-01-12 00:56:00,
2013-01-11 19:01:00,37.4,35.3,28.68,SE,135,2.5,6.3,92,0.00,,,0.00,WUHU216HW,2013-01-12 01:01:00,
2013-01-11 19:06:00,37.6,35.5,28.69,SE,135,2.2,4.7,92,0.00,,,0.00,WUHU216HW,2013-01-12 01:06:00,
2013-01-11 19:11:00,37.6,35.5,28.68,ESE,113,0.4,2.5,92,0.00,,,0.00,WUHU216HW,2013-01-12 01:11:00,
2013-01-11 19:16:00,37.8,35.6,28.68,SE,135,3.6,3.6,92,0.00,,,0.00,WUHU216HW,2013-01-12 01:16:00,
2013-01-11 19:21:00,37.8,35.6,28.68,SE,135,0.9,3.6,92,0.00,,,0.00,WUHU216HW,2013-01-12 01:21:00,
2013-01-11 19:26:00,37.8,35.6,28.68,South,180,2.0,2.7,92,0.00,,,0.00,WUHU216HW,2013-01-12 01:26:00,
2013-01-11 19:31:00,37.8,35.6,28.68,SE,135,0.4,2.7,92,0.00,,,0.00,WUHU216HW,2013-01-12 01:31:00,
2013-01-11 19:36:00,38.0,35.8,28.68,SSE,158,2.9,2.9,92,0.00,,,0.00,WUHU216HW,2013-01-12 01:36:00,
2013-01-11 19:41:00,38.0,35.8,28.68,SSE,158,0.7,2.9,92,0.00,,,0.00,WUHU216HW,2013-01-12 01:41:00,
2013-01-11 19:46:00,38.2,36.0,28.68,East,90,1.1,1.1,92,0.00,,,0.00,WUHU216HW,2013-01-12 01:46:00,
2013-01-11 19:51:00,38.3,36.2,28.68,SSE,158,0.2,2.9,92,0.00,,,0.00,WUHU216HW,2013-01-12 01:51:00,
2013-01-11 19:56:00,38.3,36.2,28.68,SE,135,1.8,2.9,92,0.00,,,0.00,WUHU216HW,2013-01-12 01:56:00,
2013-01-11 20:01:00,38.5,36.4,28.68,SSE,158,0.0,2.5,92,0.00,,,0.00,WUHU216HW,2013-01-12 02:01:00,
2013-01-11 20:06:00,38.5,36.4,28.68,SSE,158,1.1,2.0,92,0.00,,,0.00,WUHU216HW,2013-01-12 02:06:00,
2013-01-11 20:11:00,38.9,36.7,28.68,South,180,3.8,3.8,92,0.00,,,0.00,WUHU216HW,2013-01-12 02:11:00,
2013-01-11 20:16:00,39.1,37.2,28.68,SE,135,0.7,3.8,93,0.00,,,0.00,WUHU216HW,2013-01-12 02:16:00,
2013-01-11 20:21:00,39.2,37.4,28.68,SSE,158,0.4,2.7,93,0.00,,,0.00,WUHU216HW,2013-01-12 02:21:00,
2013-01-11 20:26:00,39.2,37.4,28.67,ENE,68,0.0,2.7,93,0.00,,,0.00,WUHU216HW,2013-01-12 02:26:00,
2013-01-11 20:32:00,39.2,37.4,28.67,SE,135,0.9,3.4,93,0.00,,,0.00,WUHU216HW,2013-01-12 02:32:00,
2013-01-11 20:37:00,39.2,37.4,28.67,SSE,158,4.0,4.0,93,0.00,,,0.00,WUHU216HW,2013-01-12 02:37:00,
2013-01-11 20:42:00,39.2,37.4,28.67,SSE,158,3.8,4.7,93,0.00,,,0.00,WUHU216HW,2013-01-12 02:42:00,
2013-01-11 20:47:00,39.2,37.4,28.67,SE,135,4.0,4.7,93,0.00,,,0.00,WUHU216HW,2013-01-12 02:47:00,
2013-01-11 20:52:00,39.2,37.4,28.67,SE,135,1.8,4.0,93,0.00,,,0.00,WUHU216HW,2013-01-12 02:52:00,
2013-01-11 20:57:00,39.2,37.4,28.66,SSE,158,1.1,3.4,93,0.00,,,0.00,WUHU216HW,2013-01-12 02:57:00,
2013-01-11 21:02:00,39.2,37.4,28.67,WSW,248,0.0,3.4,93,0.00,,,0.00,WUHU216HW,2013-01-12 03:02:00,
2013-01-11 21:07:00,39.2,37.4,28.67,SSE,158,0.4,3.1,93,0.00,,,0.00,WUHU216HW,2013-01-12 03:07:00,
2013-01-11 21:12:00,39.2,37.4,28.67,South,180,0.4,2.0,93,0.00,,,0.00,WUHU216HW,2013-01-12 03:12:00,
2013-01-11 21:17:00,39.4,37.5,28.67,SE,135,0.7,3.6,93,0.00,,,0.00,WUHU216HW,2013-01-12 03:17:00,
2013-01-11 21:22:00,39.4,37.5,28.66,SE,135,2.0,3.6,93,0.00,,,0.00,WUHU216HW,2013-01-12 03:22:00,
2013-01-11 21:27:00,39.4,37.5,28.66,SSE,158,1.3,2.5,93,0.00,,,0.00,WUHU216HW,2013-01-12 03:27:00,
2013-01-11 21:32:00,39.4,37.5,28.66,SSE,158,0.0,2.5,93,0.00,,,0.00,WUHU216HW,2013-01-12 03:32:00,
2013-01-11 21:37:00,39.6,37.7,28.66,SE,135,2.5,2.5,93,0.00,,,0.00,WUHU216HW,2013-01-12 03:37:00,
2013-01-11 21:42:00,39.6,37.7,28.66,East,90,0.4,5.6,93,0.00,,,0.00,WUHU216HW,2013-01-12 03:42:00,
2013-01-11 21:47:00,39.8,37.9,28.66,WNW,293,1.1,5.6,93,0.00,,,0.00,WUHU216HW,2013-01-12 03:47:00,
2013-01-11 21:52:00,39.8,37.9,28.66,East,90,1.6,3.4,93,0.00,,,0.00,WUHU216HW,2013-01-12 03:52:00,
2013-01-11 21:57:00,40.0,38.1,28.66,East,90,0.2,3.4,93,0.00,,,0.00,WUHU216HW,2013-01-12 03:57:00,
2013-01-11 22:02:00,40.0,38.1,28.66,ESE,113,0.4,2.2,93,0.00,,,0.00,WUHU216HW,2013-01-12 04:02:00,
2013-01-11 22:07:00,40.0,38.1,28.66,ENE,68,0.2,2.2,93,0.00,,,0.00,WUHU216HW,2013-01-12 04:07:00,
2013-01-11 22:12:00,40.0,38.1,28.66,NE,45,0.4,1.8,93,0.00,,,0.00,WUHU216HW,2013-01-12 04:12:00,
2013-01-11 22:17:00,40.0,38.1,28.66,NNE,23,0.7,1.8,93,0.00,,,0.00,WUHU216HW,2013-01-12 04:17:00,
2013-01-11 22:22:00,40.0,38.1,28.66,WNW,293,2.5,2.5,93,0.00,,,0.00,WUHU216HW,2013-01-12 04:22:00,
2013-01-11 22:27:00,40.1,38.3,28.66,SE,135,1.1,2.5,93,0.00,,,0.00,WUHU216HW,2013-01-12 04:27:00,
2013-01-11 22:32:00,40.1,38.3,28.65,NW,315,1.3,2.5,93,0.00,,,0.00,WUHU216HW,2013-01-12 04:32:00,
2013-01-11 22:37:00,40.1,38.3,28.65,North,0,0.9,3.4,93,0.00,,,0.00,WUHU216HW,2013-01-12 04:37:00,
2013-01-11 22:42:00,40.1,38.3,28.65,WNW,293,2.5,3.4,93,0.00,,,0.00,WUHU216HW,2013-01-12 04:42:00,
2013-01-11 22:47:00,40.0,38.1,28.65,NW,315,2.5,4.0,93,0.00,,,0.00,WUHU216HW,2013-01-12 04:47:00,
2013-01-11 22:52:00,40.0,38.1,28.65,West,270,1.3,4.0,93,0.00,,,0.00,WUHU216HW,2013-01-12 04:52:00,
2013-01-11 22:57:00,39.8,37.9,28.65,West,270,2.2,2.2,93,0.00,,,0.00,WUHU216HW,2013-01-12 04:57:00,
2013-01-11 23:00:00,39.6,37.7,28.65,NW,315,3.6,3.6,93,0.00,,,0.00,WUHU216HW,2013-01-12 05:00:00,
2013-01-11 23:01:00,39.6,37.7,28.66,WNW,293,2.2,3.6,93,0.00,,,0.00,WUHU216HW,2013-01-12 05:01:00,
2013-01-11 23:03:00,39.6,37.7,28.66,West,270,4.5,4.5,93,0.00,,,0.00,WUHU216HW,2013-01-12 05:03:00,
2013-01-11 23:08:00,39.4,37.5,28.66,WNW,293,1.8,4.7,93,0.00,,,0.00,WUHU216HW,2013-01-12 05:08:00,
2013-01-11 23:13:00,39.2,37.1,28.66,West,270,1.3,4.7,92,0.00,,,0.00,WUHU216HW,2013-01-12 05:13:00,
2013-01-11 23:18:00,39.1,36.9,28.66,NNW,338,4.7,4.7,92,0.00,,,0.00,WUHU216HW,2013-01-12 05:18:00,
2013-01-11 23:23:00,38.7,36.3,28.66,WSW,248,2.0,4.7,91,0.00,,,0.00,WUHU216HW,2013-01-12 05:23:00,
2013-01-11 23:28:00,38.5,36.1,28.66,WNW,293,5.8,5.8,91,0.00,,,0.00,WUHU216HW,2013-01-12 05:28:00,
2013-01-11 23:33:00,38.5,36.1,28.66,NW,315,2.5,5.8,91,0.00,,,0.00,WUHU216HW,2013-01-12 05:33:00,
2013-01-11 23:38:00,38.3,35.9,28.66,WNW,293,3.4,4.9,91,0.00,,,0.00,WUHU216HW,2013-01-12 05:38:00,
2013-01-11 23:43:00,38.2,35.7,28.66,West,270,3.1,6.9,91,0.00,,,0.00,WUHU216HW,2013-01-12 05:43:00,
2013-01-11 23:48:00,38.0,35.6,28.66,WNW,293,3.1,7.8,91,0.00,,,0.00,WUHU216HW,2013-01-12 05:48:00,
2013-01-11 23:53:00,37.8,35.4,28.67,WNW,293,2.9,7.8,91,0.00,,,0.00,WUHU216HW,2013-01-12 05:53:00,
2013-01-11 23:58:00,37.6,35.2,28.66,West,270,2.5,4.7,91,0.00,,,0.00,WUHU216HW,2013-01-12 05:58:00,